sensor_id;sensor_type;location;lat;lon;timestamp;P1;durP1;ratioP1;P2;durP2;ratioP2
70981;SDS011;58640;51.320;9.456;2022-11-15T00:01:21;7.15;;;4.25;;
70981;SDS011;58640;51.320;9.456;2022-11-15T00:03:50;7.25;;;4.30;;
70981;SDS011;58640;51.320;9.456;2022-11-15T00:06:16;6.65;;;4.20;;
70981;SDS011;58640;51.320;9.456;2022-11-15T00:08:41;8.57;;;4.40;;
70981;SDS011;58640;51.320;9.456;2022-11-15T00:11:08;8.55;;;4.50;;
70981;SDS011;58640;51.320;9.456;2022-11-15T00:13:35;7.10;;;4.32;;
70981;SDS011;58640;51.320;9.456;2022-11-15T00:16:00;9.00;;;4.65;;
70981;SDS011;58640;51.320;9.456;2022-11-15T00:18:27;7.45;;;4.43;;
70981;SDS011;58640;51.320;9.456;2022-11-15T00:20:53;6.00;;;4.25;;
70981;SDS011;58640;51.320;9.456;2022-11-15T00:23:18;7.50;;;3.92;;
70981;SDS011;58640;51.320;9.456;2022-11-15T00:25:43;5.47;;;4.28;;
70981;SDS011;58640;51.320;9.456;2022-11-15T00:28:09;9.10;;;4.65;;
70981;SDS011;58640;51.320;9.456;2022-11-15T00:30:34;8.82;;;3.85;;
70981;SDS011;58640;51.320;9.456;2022-11-15T00:33:03;7.65;;;3.63;;
70981;SDS011;58640;51.320;9.456;2022-11-15T00:35:31;7.72;;;4.20;;
70981;SDS011;58640;51.320;9.456;2022-11-15T00:37:57;8.10;;;4.20;;
70981;SDS011;58640;51.320;9.456;2022-11-15T00:40:22;7.10;;;3.72;;
70981;SDS011;58640;51.320;9.456;2022-11-15T00:42:48;7.20;;;4.88;;
70981;SDS011;58640;51.320;9.456;2022-11-15T00:45:13;11.77;;;4.75;;
70981;SDS011;58640;51.320;9.456;2022-11-15T00:47:38;6.70;;;4.10;;
70981;SDS011;58640;51.320;9.456;2022-11-15T00:50:04;6.13;;;4.30;;
70981;SDS011;58640;51.320;9.456;2022-11-15T00:52:29;4.40;;;3.28;;
70981;SDS011;58640;51.320;9.456;2022-11-15T00:54:55;6.82;;;3.70;;
70981;SDS011;58640;51.320;9.456;2022-11-15T00:57:20;9.32;;;4.40;;
70981;SDS011;58640;51.320;9.456;2022-11-15T00:59:45;7.20;;;5.03;;
70981;SDS011;58640;51.320;9.456;2022-11-15T01:02:11;7.15;;;3.75;;
70981;SDS011;58640;51.320;9.456;2022-11-15T01:04:36;4.93;;;4.05;;
70981;SDS011;58640;51.320;9.456;2022-11-15T01:07:01;5.40;;;4.00;;
70981;SDS011;58640;51.320;9.456;2022-11-15T01:09:27;7.22;;;3.92;;
70981;SDS011;58640;51.320;9.456;2022-11-15T01:11:52;11.20;;;4.72;;
70981;SDS011;58640;51.320;9.456;2022-11-15T01:14:18;5.53;;;3.60;;
70981;SDS011;58640;51.320;9.456;2022-11-15T01:16:43;6.40;;;3.50;;
70981;SDS011;58640;51.320;9.456;2022-11-15T01:19:09;6.55;;;4.22;;
70981;SDS011;58640;51.320;9.456;2022-11-15T01:21:34;6.50;;;4.05;;
70981;SDS011;58640;51.320;9.456;2022-11-15T01:23:59;6.88;;;4.20;;
70981;SDS011;58640;51.320;9.456;2022-11-15T01:26:25;6.05;;;4.18;;
70981;SDS011;58640;51.320;9.456;2022-11-15T01:28:51;8.90;;;3.95;;
70981;SDS011;58640;51.320;9.456;2022-11-15T01:31:18;7.32;;;3.80;;
70981;SDS011;58640;51.320;9.456;2022-11-15T01:33:44;5.78;;;4.10;;
70981;SDS011;58640;51.320;9.456;2022-11-15T01:36:12;8.23;;;4.18;;
70981;SDS011;58640;51.320;9.456;2022-11-15T01:38:39;5.00;;;3.95;;
70981;SDS011;58640;51.320;9.456;2022-11-15T01:41:05;9.52;;;4.28;;
70981;SDS011;58640;51.320;9.456;2022-11-15T01:43:34;6.75;;;4.18;;
70981;SDS011;58640;51.320;9.456;2022-11-15T01:46:05;5.70;;;4.22;;
70981;SDS011;58640;51.320;9.456;2022-11-15T01:48:46;6.97;;;3.80;;
70981;SDS011;58640;51.320;9.456;2022-11-15T01:51:15;6.60;;;4.43;;
70981;SDS011;58640;51.320;9.456;2022-11-15T01:53:45;4.55;;;3.80;;
70981;SDS011;58640;51.320;9.456;2022-11-15T01:56:17;6.15;;;3.83;;
70981;SDS011;58640;51.320;9.456;2022-11-15T01:58:45;5.70;;;3.65;;
70981;SDS011;58640;51.320;9.456;2022-11-15T02:01:12;6.65;;;4.43;;
70981;SDS011;58640;51.320;9.456;2022-11-15T02:03:41;6.70;;;4.07;;
70981;SDS011;58640;51.320;9.456;2022-11-15T02:06:13;7.25;;;4.40;;
70981;SDS011;58640;51.320;9.456;2022-11-15T02:08:39;6.47;;;4.70;;
70981;SDS011;58640;51.320;9.456;2022-11-15T02:11:08;8.70;;;4.30;;
70981;SDS011;58640;51.320;9.456;2022-11-15T02:13:35;6.35;;;3.80;;
70981;SDS011;58640;51.320;9.456;2022-11-15T02:19:02;10.18;;;4.38;;
70981;SDS011;58640;51.320;9.456;2022-11-15T02:21:43;8.50;;;4.65;;
70981;SDS011;58640;51.320;9.456;2022-11-15T02:24:25;8.63;;;4.13;;
70981;SDS011;58640;51.320;9.456;2022-11-15T02:27:29;7.07;;;4.07;;
70981;SDS011;58640;51.320;9.456;2022-11-15T02:36:01;10.50;;;4.70;;
70981;SDS011;58640;51.320;9.456;2022-11-15T02:38:45;8.02;;;4.55;;
70981;SDS011;58640;51.320;9.456;2022-11-15T02:41:20;5.95;;;4.30;;
70981;SDS011;58640;51.320;9.456;2022-11-15T02:44:11;8.45;;;4.18;;
70981;SDS011;58640;51.320;9.456;2022-11-15T02:46:51;7.40;;;3.95;;
70981;SDS011;58640;51.320;9.456;2022-11-15T02:49:39;7.82;;;4.47;;
70981;SDS011;58640;51.320;9.456;2022-11-15T02:52:24;6.50;;;4.50;;
70981;SDS011;58640;51.320;9.456;2022-11-15T02:54:58;6.60;;;4.63;;
70981;SDS011;58640;51.320;9.456;2022-11-15T03:00:06;5.57;;;4.22;;
70981;SDS011;58640;51.320;9.456;2022-11-15T03:11:01;9.63;;;5.45;;
70981;SDS011;58640;51.320;9.456;2022-11-15T03:18:35;8.85;;;4.82;;
70981;SDS011;58640;51.320;9.456;2022-11-15T03:21:04;8.52;;;4.15;;
70981;SDS011;58640;51.320;9.456;2022-11-15T03:23:33;7.13;;;4.70;;
70981;SDS011;58640;51.320;9.456;2022-11-15T03:26:00;6.68;;;4.00;;
70981;SDS011;58640;51.320;9.456;2022-11-15T03:28:34;5.72;;;3.72;;
70981;SDS011;58640;51.320;9.456;2022-11-15T03:31:03;5.60;;;3.90;;
70981;SDS011;58640;51.320;9.456;2022-11-15T03:33:50;9.25;;;4.70;;
70981;SDS011;58640;51.320;9.456;2022-11-15T03:36:18;5.05;;;3.70;;
70981;SDS011;58640;51.320;9.456;2022-11-15T03:38:47;6.75;;;4.07;;
70981;SDS011;58640;51.320;9.456;2022-11-15T03:41:15;8.32;;;4.57;;
70981;SDS011;58640;51.320;9.456;2022-11-15T03:44:51;8.13;;;3.65;;
70981;SDS011;58640;51.320;9.456;2022-11-15T03:47:21;5.85;;;3.95;;
70981;SDS011;58640;51.320;9.456;2022-11-15T03:49:59;7.05;;;3.60;;
70981;SDS011;58640;51.320;9.456;2022-11-15T03:52:37;4.72;;;3.50;;
70981;SDS011;58640;51.320;9.456;2022-11-15T03:55:05;7.32;;;4.45;;
70981;SDS011;58640;51.320;9.456;2022-11-15T03:57:33;5.00;;;3.88;;
70981;SDS011;58640;51.320;9.456;2022-11-15T03:59:58;6.40;;;3.97;;
70981;SDS011;58640;51.320;9.456;2022-11-15T04:02:23;6.28;;;3.92;;
70981;SDS011;58640;51.320;9.456;2022-11-15T04:04:49;5.47;;;3.53;;
70981;SDS011;58640;51.320;9.456;2022-11-15T04:07:14;7.93;;;4.57;;
70981;SDS011;58640;51.320;9.456;2022-11-15T04:09:40;5.60;;;4.03;;
70981;SDS011;58640;51.320;9.456;2022-11-15T04:12:23;7.53;;;3.83;;
70981;SDS011;58640;51.320;9.456;2022-11-15T04:15:02;5.90;;;3.88;;
70981;SDS011;58640;51.320;9.456;2022-11-15T04:20:16;5.25;;;3.22;;
70981;SDS011;58640;51.320;9.456;2022-11-15T04:23:14;6.05;;;3.53;;
70981;SDS011;58640;51.320;9.456;2022-11-15T04:26:13;8.40;;;4.13;;
70981;SDS011;58640;51.320;9.456;2022-11-15T04:28:41;6.72;;;3.78;;
70981;SDS011;58640;51.320;9.456;2022-11-15T04:31:26;5.55;;;4.10;;
70981;SDS011;58640;51.320;9.456;2022-11-15T04:33:51;6.50;;;3.88;;
70981;SDS011;58640;51.320;9.456;2022-11-15T04:36:17;5.95;;;3.70;;
70981;SDS011;58640;51.320;9.456;2022-11-15T04:39:01;6.63;;;3.80;;
70981;SDS011;58640;51.320;9.456;2022-11-15T04:41:27;6.90;;;4.15;;
70981;SDS011;58640;51.320;9.456;2022-11-15T04:43:54;6.65;;;3.92;;
70981;SDS011;58640;51.320;9.456;2022-11-15T04:46:19;5.97;;;3.45;;
70981;SDS011;58640;51.320;9.456;2022-11-15T04:48:44;9.05;;;4.35;;
70981;SDS011;58640;51.320;9.456;2022-11-15T04:51:10;7.28;;;3.33;;
70981;SDS011;58640;51.320;9.456;2022-11-15T04:53:35;5.10;;;3.90;;
70981;SDS011;58640;51.320;9.456;2022-11-15T04:56:00;6.65;;;3.90;;
70981;SDS011;58640;51.320;9.456;2022-11-15T04:58:26;4.22;;;3.13;;
70981;SDS011;58640;51.320;9.456;2022-11-15T05:00:51;5.65;;;3.88;;
70981;SDS011;58640;51.320;9.456;2022-11-15T05:03:16;4.35;;;3.72;;
70981;SDS011;58640;51.320;9.456;2022-11-15T05:06:00;7.05;;;3.80;;
70981;SDS011;58640;51.320;9.456;2022-11-15T05:08:26;7.13;;;3.38;;
70981;SDS011;58640;51.320;9.456;2022-11-15T05:10:51;7.78;;;3.70;;
70981;SDS011;58640;51.320;9.456;2022-11-15T05:13:17;9.05;;;3.58;;
70981;SDS011;58640;51.320;9.456;2022-11-15T05:15:42;6.53;;;4.10;;
70981;SDS011;58640;51.320;9.456;2022-11-15T05:18:08;4.60;;;3.45;;
70981;SDS011;58640;51.320;9.456;2022-11-15T05:20:34;5.47;;;3.65;;
70981;SDS011;58640;51.320;9.456;2022-11-15T05:22:59;4.63;;;3.28;;
70981;SDS011;58640;51.320;9.456;2022-11-15T05:25:24;5.55;;;3.63;;
70981;SDS011;58640;51.320;9.456;2022-11-15T05:27:50;4.80;;;3.40;;
70981;SDS011;58640;51.320;9.456;2022-11-15T05:30:15;4.95;;;3.53;;
70981;SDS011;58640;51.320;9.456;2022-11-15T05:32:41;6.15;;;3.25;;
70981;SDS011;58640;51.320;9.456;2022-11-15T05:35:07;6.05;;;3.08;;
70981;SDS011;58640;51.320;9.456;2022-11-15T05:37:37;4.32;;;3.42;;
70981;SDS011;58640;51.320;9.456;2022-11-15T05:40:02;7.30;;;3.40;;
70981;SDS011;58640;51.320;9.456;2022-11-15T05:42:28;6.95;;;3.95;;
70981;SDS011;58640;51.320;9.456;2022-11-15T05:44:55;5.55;;;3.25;;
70981;SDS011;58640;51.320;9.456;2022-11-15T05:47:23;4.20;;;2.78;;
70981;SDS011;58640;51.320;9.456;2022-11-15T05:49:52;5.28;;;3.35;;
70981;SDS011;58640;51.320;9.456;2022-11-15T05:52:19;6.05;;;3.58;;
70981;SDS011;58640;51.320;9.456;2022-11-15T05:54:47;4.50;;;3.30;;
70981;SDS011;58640;51.320;9.456;2022-11-15T05:57:13;6.45;;;3.17;;
70981;SDS011;58640;51.320;9.456;2022-11-15T05:59:38;4.45;;;3.13;;
70981;SDS011;58640;51.320;9.456;2022-11-15T06:02:05;5.60;;;3.38;;
70981;SDS011;58640;51.320;9.456;2022-11-15T06:04:31;4.22;;;3.15;;
70981;SDS011;58640;51.320;9.456;2022-11-15T06:06:57;8.90;;;3.50;;
70981;SDS011;58640;51.320;9.456;2022-11-15T06:09:23;5.47;;;4.25;;
70981;SDS011;58640;51.320;9.456;2022-11-15T06:11:49;4.88;;;3.22;;
70981;SDS011;58640;51.320;9.456;2022-11-15T06:14:14;4.30;;;3.50;;
70981;SDS011;58640;51.320;9.456;2022-11-15T06:16:40;5.15;;;3.20;;
70981;SDS011;58640;51.320;9.456;2022-11-15T06:19:06;4.40;;;3.00;;
70981;SDS011;58640;51.320;9.456;2022-11-15T06:21:31;7.78;;;3.42;;
70981;SDS011;58640;51.320;9.456;2022-11-15T06:23:57;6.28;;;3.28;;
70981;SDS011;58640;51.320;9.456;2022-11-15T06:26:22;3.72;;;2.97;;
70981;SDS011;58640;51.320;9.456;2022-11-15T06:28:48;4.82;;;3.08;;
70981;SDS011;58640;51.320;9.456;2022-11-15T06:31:13;7.90;;;3.38;;
70981;SDS011;58640;51.320;9.456;2022-11-15T06:33:39;4.53;;;3.50;;
70981;SDS011;58640;51.320;9.456;2022-11-15T06:36:06;2.75;;;2.50;;
70981;SDS011;58640;51.320;9.456;2022-11-15T06:38:35;4.82;;;3.03;;
70981;SDS011;58640;51.320;9.456;2022-11-15T06:41:02;5.07;;;2.83;;
70981;SDS011;58640;51.320;9.456;2022-11-15T06:43:29;3.03;;;2.65;;
70981;SDS011;58640;51.320;9.456;2022-11-15T06:45:54;5.55;;;3.15;;
70981;SDS011;58640;51.320;9.456;2022-11-15T06:48:19;5.35;;;3.42;;
70981;SDS011;58640;51.320;9.456;2022-11-15T06:50:51;7.35;;;3.58;;
70981;SDS011;58640;51.320;9.456;2022-11-15T06:53:20;7.50;;;3.60;;
70981;SDS011;58640;51.320;9.456;2022-11-15T06:55:46;4.40;;;3.25;;
70981;SDS011;58640;51.320;9.456;2022-11-15T06:58:11;5.95;;;3.10;;
70981;SDS011;58640;51.320;9.456;2022-11-15T07:00:37;6.80;;;3.40;;
70981;SDS011;58640;51.320;9.456;2022-11-15T07:03:02;5.10;;;3.13;;
70981;SDS011;58640;51.320;9.456;2022-11-15T07:05:28;4.65;;;3.55;;
70981;SDS011;58640;51.320;9.456;2022-11-15T07:07:54;6.63;;;3.72;;
70981;SDS011;58640;51.320;9.456;2022-11-15T07:10:21;11.82;;;4.22;;
70981;SDS011;58640;51.320;9.456;2022-11-15T07:12:49;5.40;;;3.50;;
70981;SDS011;58640;51.320;9.456;2022-11-15T07:15:17;6.82;;;4.13;;
70981;SDS011;58640;51.320;9.456;2022-11-15T07:17:44;6.47;;;3.65;;
70981;SDS011;58640;51.320;9.456;2022-11-15T07:20:09;6.18;;;3.90;;
70981;SDS011;58640;51.320;9.456;2022-11-15T07:22:35;5.25;;;3.63;;
70981;SDS011;58640;51.320;9.456;2022-11-15T07:25:00;7.43;;;4.28;;
70981;SDS011;58640;51.320;9.456;2022-11-15T07:27:26;5.97;;;4.00;;
70981;SDS011;58640;51.320;9.456;2022-11-15T07:29:51;8.48;;;4.22;;
70981;SDS011;58640;51.320;9.456;2022-11-15T07:32:16;5.80;;;3.42;;
70981;SDS011;58640;51.320;9.456;2022-11-15T07:34:42;4.93;;;3.80;;
70981;SDS011;58640;51.320;9.456;2022-11-15T07:37:07;6.90;;;3.70;;
70981;SDS011;58640;51.320;9.456;2022-11-15T07:39:33;7.47;;;3.33;;
70981;SDS011;58640;51.320;9.456;2022-11-15T07:41:58;5.85;;;3.50;;
70981;SDS011;58640;51.320;9.456;2022-11-15T07:44:42;6.03;;;4.05;;
70981;SDS011;58640;51.320;9.456;2022-11-15T07:47:08;6.00;;;3.75;;
70981;SDS011;58640;51.320;9.456;2022-11-15T07:49:33;4.10;;;3.40;;
70981;SDS011;58640;51.320;9.456;2022-11-15T07:51:58;5.78;;;3.97;;
70981;SDS011;58640;51.320;9.456;2022-11-15T07:54:24;6.40;;;4.18;;
70981;SDS011;58640;51.320;9.456;2022-11-15T07:56:49;5.57;;;4.10;;
70981;SDS011;58640;51.320;9.456;2022-11-15T07:59:15;6.88;;;3.72;;
70981;SDS011;58640;51.320;9.456;2022-11-15T08:01:40;5.90;;;3.53;;
70981;SDS011;58640;51.320;9.456;2022-11-15T08:04:05;6.97;;;3.67;;
70981;SDS011;58640;51.320;9.456;2022-11-15T08:06:30;8.35;;;4.15;;
70981;SDS011;58640;51.320;9.456;2022-11-15T08:08:56;7.07;;;4.43;;
70981;SDS011;58640;51.320;9.456;2022-11-15T08:11:21;11.00;;;4.78;;
70981;SDS011;58640;51.320;9.456;2022-11-15T08:13:46;5.88;;;3.47;;
70981;SDS011;58640;51.320;9.456;2022-11-15T08:16:12;5.13;;;4.13;;
70981;SDS011;58640;51.320;9.456;2022-11-15T08:18:37;7.93;;;4.43;;
70981;SDS011;58640;51.320;9.456;2022-11-15T08:21:03;9.68;;;4.25;;
70981;SDS011;58640;51.320;9.456;2022-11-15T08:23:29;8.98;;;4.38;;
70981;SDS011;58640;51.320;9.456;2022-11-15T08:26:04;10.35;;;4.15;;
70981;SDS011;58640;51.320;9.456;2022-11-15T08:28:31;7.05;;;4.40;;
70981;SDS011;58640;51.320;9.456;2022-11-15T08:30:56;9.65;;;4.32;;
70981;SDS011;58640;51.320;9.456;2022-11-15T08:33:22;7.13;;;3.83;;
70981;SDS011;58640;51.320;9.456;2022-11-15T08:35:47;8.68;;;4.65;;
70981;SDS011;58640;51.320;9.456;2022-11-15T08:38:13;7.00;;;4.13;;
70981;SDS011;58640;51.320;9.456;2022-11-15T08:40:39;8.57;;;3.65;;
70981;SDS011;58640;51.320;9.456;2022-11-15T08:43:04;11.30;;;3.67;;
70981;SDS011;58640;51.320;9.456;2022-11-15T08:45:30;7.20;;;3.47;;
70981;SDS011;58640;51.320;9.456;2022-11-15T08:47:55;8.25;;;3.28;;
70981;SDS011;58640;51.320;9.456;2022-11-15T08:50:21;10.27;;;3.28;;
70981;SDS011;58640;51.320;9.456;2022-11-15T08:52:47;4.70;;;3.03;;
70981;SDS011;58640;51.320;9.456;2022-11-15T08:55:15;8.18;;;3.63;;
70981;SDS011;58640;51.320;9.456;2022-11-15T08:57:40;5.13;;;3.03;;
70981;SDS011;58640;51.320;9.456;2022-11-15T09:00:06;3.28;;;2.97;;
70981;SDS011;58640;51.320;9.456;2022-11-15T09:02:32;6.38;;;3.22;;
70981;SDS011;58640;51.320;9.456;2022-11-15T09:04:57;4.53;;;2.92;;
70981;SDS011;58640;51.320;9.456;2022-11-15T09:07:22;4.15;;;3.08;;
70981;SDS011;58640;51.320;9.456;2022-11-15T09:09:48;6.70;;;3.17;;
70981;SDS011;58640;51.320;9.456;2022-11-15T09:12:14;6.80;;;3.90;;
70981;SDS011;58640;51.320;9.456;2022-11-15T09:14:39;7.45;;;4.32;;
70981;SDS011;58640;51.320;9.456;2022-11-15T09:17:07;6.53;;;3.47;;
70981;SDS011;58640;51.320;9.456;2022-11-15T09:19:33;6.72;;;3.40;;
70981;SDS011;58640;51.320;9.456;2022-11-15T09:21:59;9.35;;;2.92;;
70981;SDS011;58640;51.320;9.456;2022-11-15T09:24:24;6.15;;;2.65;;
70981;SDS011;58640;51.320;9.456;2022-11-15T09:26:50;7.93;;;2.65;;
70981;SDS011;58640;51.320;9.456;2022-11-15T09:29:16;5.78;;;3.00;;
70981;SDS011;58640;51.320;9.456;2022-11-15T09:31:42;6.05;;;2.80;;
70981;SDS011;58640;51.320;9.456;2022-11-15T09:34:08;5.93;;;3.22;;
70981;SDS011;58640;51.320;9.456;2022-11-15T09:36:33;4.55;;;2.97;;
70981;SDS011;58640;51.320;9.456;2022-11-15T09:38:59;4.85;;;3.08;;
70981;SDS011;58640;51.320;9.456;2022-11-15T09:44:38;6.32;;;3.60;;
70981;SDS011;58640;51.320;9.456;2022-11-15T09:49:54;6.18;;;3.70;;
70981;SDS011;58640;51.320;9.456;2022-11-15T09:52:23;7.47;;;3.42;;
70981;SDS011;58640;51.320;9.456;2022-11-15T09:54:50;10.38;;;3.03;;
70981;SDS011;58640;51.320;9.456;2022-11-15T09:57:27;7.35;;;3.50;;
70981;SDS011;58640;51.320;9.456;2022-11-15T10:00:04;5.20;;;3.58;;
70981;SDS011;58640;51.320;9.456;2022-11-15T10:05:22;5.05;;;3.35;;
70981;SDS011;58640;51.320;9.456;2022-11-15T10:12:59;6.85;;;2.70;;
70981;SDS011;58640;51.320;9.456;2022-11-15T10:15:25;4.85;;;3.10;;
70981;SDS011;58640;51.320;9.456;2022-11-15T10:20:54;4.95;;;3.03;;
70981;SDS011;58640;51.320;9.456;2022-11-15T10:23:23;3.25;;;2.80;;
70981;SDS011;58640;51.320;9.456;2022-11-15T10:25:53;6.15;;;3.53;;
70981;SDS011;58640;51.320;9.456;2022-11-15T10:28:27;7.95;;;3.53;;
70981;SDS011;58640;51.320;9.456;2022-11-15T10:30:55;3.60;;;2.92;;
70981;SDS011;58640;51.320;9.456;2022-11-15T10:33:35;6.45;;;3.50;;
70981;SDS011;58640;51.320;9.456;2022-11-15T10:38:47;8.15;;;3.97;;
70981;SDS011;58640;51.320;9.456;2022-11-15T10:46:32;5.97;;;3.30;;
70981;SDS011;58640;51.320;9.456;2022-11-15T10:54:27;5.28;;;2.75;;
70981;SDS011;58640;51.320;9.456;2022-11-15T10:56:58;7.22;;;2.80;;
70981;SDS011;58640;51.320;9.456;2022-11-15T10:59:29;7.03;;;2.83;;
70981;SDS011;58640;51.320;9.456;2022-11-15T11:01:56;4.22;;;2.67;;
70981;SDS011;58640;51.320;9.456;2022-11-15T11:04:22;5.15;;;2.90;;
70981;SDS011;58640;51.320;9.456;2022-11-15T11:11:54;5.03;;;3.30;;
70981;SDS011;58640;51.320;9.456;2022-11-15T11:14:23;5.60;;;2.40;;
70981;SDS011;58640;51.320;9.456;2022-11-15T11:16:53;6.28;;;2.50;;
70981;SDS011;58640;51.320;9.456;2022-11-15T11:22:10;4.63;;;2.38;;
70981;SDS011;58640;51.320;9.456;2022-11-15T11:30:20;4.00;;;2.30;;
70981;SDS011;58640;51.320;9.456;2022-11-15T11:35:39;2.42;;;2.05;;
70981;SDS011;58640;51.320;9.456;2022-11-15T11:41:13;1.60;;;1.50;;
70981;SDS011;58640;51.320;9.456;2022-11-15T11:49:21;2.30;;;1.98;;
70981;SDS011;58640;51.320;9.456;2022-11-15T11:52:07;4.47;;;2.10;;
70981;SDS011;58640;51.320;9.456;2022-11-15T11:54:38;2.72;;;1.73;;
70981;SDS011;58640;51.320;9.456;2022-11-15T11:57:15;4.18;;;1.60;;
70981;SDS011;58640;51.320;9.456;2022-11-15T12:00:14;4.95;;;2.22;;
70981;SDS011;58640;51.320;9.456;2022-11-15T12:02:45;2.65;;;1.98;;
70981;SDS011;58640;51.320;9.456;2022-11-15T12:05:43;3.00;;;1.58;;
70981;SDS011;58640;51.320;9.456;2022-11-15T12:10:39;4.82;;;2.10;;
70981;SDS011;58640;51.320;9.456;2022-11-15T12:15:56;1.90;;;1.52;;
70981;SDS011;58640;51.320;9.456;2022-11-15T12:18:27;2.40;;;1.30;;
70981;SDS011;58640;51.320;9.456;2022-11-15T12:20:57;3.80;;;1.50;;
70981;SDS011;58640;51.320;9.456;2022-11-15T12:23:29;3.15;;;1.55;;
70981;SDS011;58640;51.320;9.456;2022-11-15T12:26:03;2.97;;;1.80;;
70981;SDS011;58640;51.320;9.456;2022-11-15T12:28:45;4.78;;;1.63;;
70981;SDS011;58640;51.320;9.456;2022-11-15T12:34:13;4.28;;;2.30;;
70981;SDS011;58640;51.320;9.456;2022-11-15T12:36:54;1.90;;;1.52;;
70981;SDS011;58640;51.320;9.456;2022-11-15T12:39:20;7.68;;;1.63;;
70981;SDS011;58640;51.320;9.456;2022-11-15T12:47:08;2.53;;;1.77;;
70981;SDS011;58640;51.320;9.456;2022-11-15T12:49:48;5.72;;;1.73;;
70981;SDS011;58640;51.320;9.456;2022-11-15T12:52:14;2.38;;;1.70;;
70981;SDS011;58640;51.320;9.456;2022-11-15T13:04:55;4.65;;;1.90;;
70981;SDS011;58640;51.320;9.456;2022-11-15T13:12:58;4.63;;;2.80;;
70981;SDS011;58640;51.320;9.456;2022-11-15T13:15:31;4.30;;;2.10;;
70981;SDS011;58640;51.320;9.456;2022-11-15T13:18:18;4.90;;;2.30;;
70981;SDS011;58640;51.320;9.456;2022-11-15T13:20:51;3.55;;;2.38;;
70981;SDS011;58640;51.320;9.456;2022-11-15T13:23:16;5.38;;;2.35;;
70981;SDS011;58640;51.320;9.456;2022-11-15T13:25:48;4.18;;;2.05;;
70981;SDS011;58640;51.320;9.456;2022-11-15T13:28:20;3.20;;;1.80;;
70981;SDS011;58640;51.320;9.456;2022-11-15T13:30:57;3.80;;;2.25;;
70981;SDS011;58640;51.320;9.456;2022-11-15T13:33:25;4.03;;;2.53;;
70981;SDS011;58640;51.320;9.456;2022-11-15T13:35:52;4.35;;;2.50;;
70981;SDS011;58640;51.320;9.456;2022-11-15T13:40:49;4.30;;;2.65;;
70981;SDS011;58640;51.320;9.456;2022-11-15T13:43:34;2.42;;;1.83;;
70981;SDS011;58640;51.320;9.456;2022-11-15T13:46:33;4.80;;;2.40;;
70981;SDS011;58640;51.320;9.456;2022-11-15T13:51:33;2.00;;;1.80;;
70981;SDS011;58640;51.320;9.456;2022-11-15T14:03:12;3.63;;;1.60;;
70981;SDS011;58640;51.320;9.456;2022-11-15T14:06:06;3.42;;;1.73;;
70981;SDS011;58640;51.320;9.456;2022-11-15T14:08:37;4.38;;;1.80;;
70981;SDS011;58640;51.320;9.456;2022-11-15T14:11:14;1.75;;;1.50;;
70981;SDS011;58640;51.320;9.456;2022-11-15T14:13:42;1.70;;;1.60;;
70981;SDS011;58640;51.320;9.456;2022-11-15T14:16:23;1.83;;;1.60;;
70981;SDS011;58640;51.320;9.456;2022-11-15T14:18:59;2.22;;;1.65;;
70981;SDS011;58640;51.320;9.456;2022-11-15T14:21:24;4.15;;;1.80;;
70981;SDS011;58640;51.320;9.456;2022-11-15T14:23:49;3.78;;;2.47;;
70981;SDS011;58640;51.320;9.456;2022-11-15T14:26:26;4.63;;;2.40;;
70981;SDS011;58640;51.320;9.456;2022-11-15T14:28:54;6.65;;;2.28;;
70981;SDS011;58640;51.320;9.456;2022-11-15T14:31:19;2.42;;;1.92;;
70981;SDS011;58640;51.320;9.456;2022-11-15T14:33:46;3.80;;;2.20;;
70981;SDS011;58640;51.320;9.456;2022-11-15T14:36:12;3.13;;;2.22;;
70981;SDS011;58640;51.320;9.456;2022-11-15T14:38:42;3.08;;;1.80;;
70981;SDS011;58640;51.320;9.456;2022-11-15T14:41:21;5.85;;;2.40;;
70981;SDS011;58640;51.320;9.456;2022-11-15T14:43:48;2.15;;;1.88;;
70981;SDS011;58640;51.320;9.456;2022-11-15T14:46:14;4.90;;;2.88;;
70981;SDS011;58640;51.320;9.456;2022-11-15T14:48:40;4.80;;;2.72;;
70981;SDS011;58640;51.320;9.456;2022-11-15T14:51:24;3.13;;;2.15;;
70981;SDS011;58640;51.320;9.456;2022-11-15T14:53:49;5.00;;;2.38;;
70981;SDS011;58640;51.320;9.456;2022-11-15T14:56:15;3.25;;;2.10;;
70981;SDS011;58640;51.320;9.456;2022-11-15T14:58:41;5.03;;;2.40;;
70981;SDS011;58640;51.320;9.456;2022-11-15T15:03:51;7.70;;;3.90;;
70981;SDS011;58640;51.320;9.456;2022-11-15T15:06:20;5.75;;;3.63;;
70981;SDS011;58640;51.320;9.456;2022-11-15T15:08:46;8.40;;;3.35;;
70981;SDS011;58640;51.320;9.456;2022-11-15T15:11:14;3.50;;;2.72;;
70981;SDS011;58640;51.320;9.456;2022-11-15T15:13:41;4.10;;;2.50;;
70981;SDS011;58640;51.320;9.456;2022-11-15T15:16:07;4.05;;;2.17;;
70981;SDS011;58640;51.320;9.456;2022-11-15T15:18:33;3.47;;;2.50;;
70981;SDS011;58640;51.320;9.456;2022-11-15T15:20:58;3.90;;;2.47;;
70981;SDS011;58640;51.320;9.456;2022-11-15T15:23:27;3.35;;;2.38;;
70981;SDS011;58640;51.320;9.456;2022-11-15T15:25:55;5.35;;;2.85;;
70981;SDS011;58640;51.320;9.456;2022-11-15T15:28:21;5.22;;;3.58;;
70981;SDS011;58640;51.320;9.456;2022-11-15T15:30:46;5.57;;;3.22;;
70981;SDS011;58640;51.320;9.456;2022-11-15T15:33:12;5.88;;;2.88;;
70981;SDS011;58640;51.320;9.456;2022-11-15T15:35:37;7.30;;;3.20;;
70981;SDS011;58640;51.320;9.456;2022-11-15T15:38:03;4.50;;;3.17;;
70981;SDS011;58640;51.320;9.456;2022-11-15T15:40:30;4.65;;;3.35;;
70981;SDS011;58640;51.320;9.456;2022-11-15T15:42:57;6.85;;;3.40;;
70981;SDS011;58640;51.320;9.456;2022-11-15T15:45:22;6.15;;;3.50;;
70981;SDS011;58640;51.320;9.456;2022-11-15T15:47:49;5.90;;;3.13;;
70981;SDS011;58640;51.320;9.456;2022-11-15T15:50:26;6.78;;;2.95;;
70981;SDS011;58640;51.320;9.456;2022-11-15T15:52:55;6.85;;;3.40;;
70981;SDS011;58640;51.320;9.456;2022-11-15T15:55:23;6.95;;;3.17;;
70981;SDS011;58640;51.320;9.456;2022-11-15T15:57:49;7.22;;;3.28;;
70981;SDS011;58640;51.320;9.456;2022-11-15T16:00:15;5.53;;;3.40;;
70981;SDS011;58640;51.320;9.456;2022-11-15T16:02:42;5.20;;;3.33;;
70981;SDS011;58640;51.320;9.456;2022-11-15T16:05:08;5.78;;;3.40;;
70981;SDS011;58640;51.320;9.456;2022-11-15T16:07:34;5.32;;;3.38;;
70981;SDS011;58640;51.320;9.456;2022-11-15T16:10:00;6.60;;;3.58;;
70981;SDS011;58640;51.320;9.456;2022-11-15T16:12:26;4.70;;;3.33;;
70981;SDS011;58640;51.320;9.456;2022-11-15T16:14:52;6.97;;;4.18;;
70981;SDS011;58640;51.320;9.456;2022-11-15T16:17:18;5.07;;;3.33;;
70981;SDS011;58640;51.320;9.456;2022-11-15T16:19:45;8.23;;;3.97;;
70981;SDS011;58640;51.320;9.456;2022-11-15T16:22:10;4.43;;;3.35;;
70981;SDS011;58640;51.320;9.456;2022-11-15T16:24:36;5.47;;;3.13;;
70981;SDS011;58640;51.320;9.456;2022-11-15T16:27:01;6.85;;;2.85;;
70981;SDS011;58640;51.320;9.456;2022-11-15T16:29:27;10.15;;;3.40;;
70981;SDS011;58640;51.320;9.456;2022-11-15T16:31:53;7.57;;;2.70;;
70981;SDS011;58640;51.320;9.456;2022-11-15T16:34:18;3.75;;;3.00;;
70981;SDS011;58640;51.320;9.456;2022-11-15T16:36:43;3.25;;;2.20;;
70981;SDS011;58640;51.320;9.456;2022-11-15T16:39:12;4.80;;;2.75;;
70981;SDS011;58640;51.320;9.456;2022-11-15T16:41:38;4.13;;;2.35;;
70981;SDS011;58640;51.320;9.456;2022-11-15T16:44:04;4.75;;;2.65;;
70981;SDS011;58640;51.320;9.456;2022-11-15T16:46:29;3.80;;;2.67;;
70981;SDS011;58640;51.320;9.456;2022-11-15T16:48:54;4.47;;;2.35;;
70981;SDS011;58640;51.320;9.456;2022-11-15T16:51:20;8.13;;;2.70;;
70981;SDS011;58640;51.320;9.456;2022-11-15T16:53:46;3.33;;;2.08;;
70981;SDS011;58640;51.320;9.456;2022-11-15T16:58:55;5.20;;;2.40;;
70981;SDS011;58640;51.320;9.456;2022-11-15T17:01:32;3.10;;;2.30;;
70981;SDS011;58640;51.320;9.456;2022-11-15T17:04:11;3.40;;;2.92;;
70981;SDS011;58640;51.320;9.456;2022-11-15T17:06:37;3.38;;;3.05;;
70981;SDS011;58640;51.320;9.456;2022-11-15T17:09:24;4.40;;;2.92;;
70981;SDS011;58640;51.320;9.456;2022-11-15T17:11:50;6.80;;;3.78;;